sensor_id;sensor_type;location;lat;lon;timestamp;P1;durP1;ratioP1;P2;durP2;ratioP2
49858;SDS011;35756;52.346;13.622;2022-08-19T00:01:26;12.43;;;11.23;;
49858;SDS011;35756;52.346;13.622;2022-08-19T00:03:54;12.65;;;11.45;;
49858;SDS011;35756;52.346;13.622;2022-08-19T00:06:20;12.45;;;11.18;;
49858;SDS011;35756;52.346;13.622;2022-08-19T00:08:45;12.30;;;11.02;;
49858;SDS011;35756;52.346;13.622;2022-08-19T00:11:10;12.93;;;10.82;;
49858;SDS011;35756;52.346;13.622;2022-08-19T00:13:36;11.50;;;10.27;;
49858;SDS011;35756;52.346;13.622;2022-08-19T00:16:03;11.82;;;10.68;;
49858;SDS011;35756;52.346;13.622;2022-08-19T00:18:28;11.32;;;10.23;;
49858;SDS011;35756;52.346;13.622;2022-08-19T00:20:53;11.18;;;10.02;;
49858;SDS011;35756;52.346;13.622;2022-08-19T00:23:19;12.82;;;10.68;;
49858;SDS011;35756;52.346;13.622;2022-08-19T00:25:44;13.35;;;11.35;;
49858;SDS011;35756;52.346;13.622;2022-08-19T00:28:10;12.63;;;11.32;;
49858;SDS011;35756;52.346;13.622;2022-08-19T00:30:35;13.25;;;11.25;;
49858;SDS011;35756;52.346;13.622;2022-08-19T00:33:01;12.50;;;11.20;;
49858;SDS011;35756;52.346;13.622;2022-08-19T00:35:26;11.95;;;10.85;;
49858;SDS011;35756;52.346;13.622;2022-08-19T00:37:52;11.35;;;10.25;;
49858;SDS011;35756;52.346;13.622;2022-08-19T00:40:18;11.95;;;10.77;;
49858;SDS011;35756;52.346;13.622;2022-08-19T00:42:44;15.48;;;12.07;;
49858;SDS011;35756;52.346;13.622;2022-08-19T00:45:22;13.55;;;12.15;;
49858;SDS011;35756;52.346;13.622;2022-08-19T00:47:50;16.60;;;11.98;;
49858;SDS011;35756;52.346;13.622;2022-08-19T00:50:16;17.27;;;12.50;;
49858;SDS011;35756;52.346;13.622;2022-08-19T00:52:45;16.85;;;11.98;;
49858;SDS011;35756;52.346;13.622;2022-08-19T00:55:16;16.25;;;12.32;;
49858;SDS011;35756;52.346;13.622;2022-08-19T00:57:46;16.55;;;12.40;;
49858;SDS011;35756;52.346;13.622;2022-08-19T01:00:17;13.43;;;11.80;;
49858;SDS011;35756;52.346;13.622;2022-08-19T01:02:44;16.17;;;11.95;;
49858;SDS011;35756;52.346;13.622;2022-08-19T01:05:11;15.68;;;12.02;;
49858;SDS011;35756;52.346;13.622;2022-08-19T01:07:39;13.05;;;11.25;;
49858;SDS011;35756;52.346;13.622;2022-08-19T01:10:07;12.80;;;11.38;;
49858;SDS011;35756;52.346;13.622;2022-08-19T01:12:34;12.32;;;11.02;;
49858;SDS011;35756;52.346;13.622;2022-08-19T01:14:59;12.48;;;10.82;;
49858;SDS011;35756;52.346;13.622;2022-08-19T01:17:24;12.32;;;10.93;;
49858;SDS011;35756;52.346;13.622;2022-08-19T01:19:50;14.80;;;10.52;;
49858;SDS011;35756;52.346;13.622;2022-08-19T01:22:19;11.75;;;9.75;;
49858;SDS011;35756;52.346;13.622;2022-08-19T01:24:49;11.85;;;10.20;;
49858;SDS011;35756;52.346;13.622;2022-08-19T01:27:15;11.45;;;10.30;;
49858;SDS011;35756;52.346;13.622;2022-08-19T01:29:41;12.20;;;9.85;;
49858;SDS011;35756;52.346;13.622;2022-08-19T01:32:08;11.27;;;9.80;;
49858;SDS011;35756;52.346;13.622;2022-08-19T01:34:34;13.27;;;10.10;;
49858;SDS011;35756;52.346;13.622;2022-08-19T01:36:59;12.07;;;10.30;;
49858;SDS011;35756;52.346;13.622;2022-08-19T01:39:26;12.18;;;10.85;;
49858;SDS011;35756;52.346;13.622;2022-08-19T01:41:53;12.68;;;10.40;;
49858;SDS011;35756;52.346;13.622;2022-08-19T01:44:19;11.10;;;10.00;;
49858;SDS011;35756;52.346;13.622;2022-08-19T01:46:48;11.95;;;10.15;;
49858;SDS011;35756;52.346;13.622;2022-08-19T01:49:13;11.80;;;10.60;;
49858;SDS011;35756;52.346;13.622;2022-08-19T01:51:39;12.52;;;10.60;;
49858;SDS011;35756;52.346;13.622;2022-08-19T01:54:04;11.45;;;10.25;;
49858;SDS011;35756;52.346;13.622;2022-08-19T01:56:29;12.48;;;11.00;;
49858;SDS011;35756;52.346;13.622;2022-08-19T01:58:58;12.48;;;10.52;;
49858;SDS011;35756;52.346;13.622;2022-08-19T02:01:25;11.40;;;10.30;;
49858;SDS011;35756;52.346;13.622;2022-08-19T02:03:50;11.35;;;9.57;;
49858;SDS011;35756;52.346;13.622;2022-08-19T02:06:18;10.45;;;9.35;;
49858;SDS011;35756;52.346;13.622;2022-08-19T02:08:43;10.82;;;9.73;;
49858;SDS011;35756;52.346;13.622;2022-08-19T02:11:17;10.48;;;9.45;;
49858;SDS011;35756;52.346;13.622;2022-08-19T02:13:46;10.30;;;9.23;;
49858;SDS011;35756;52.346;13.622;2022-08-19T02:16:12;11.57;;;10.27;;
49858;SDS011;35756;52.346;13.622;2022-08-19T02:18:37;12.40;;;9.57;;
49858;SDS011;35756;52.346;13.622;2022-08-19T02:21:02;13.02;;;9.73;;
49858;SDS011;35756;52.346;13.622;2022-08-19T02:23:28;9.95;;;8.95;;
49858;SDS011;35756;52.346;13.622;2022-08-19T02:25:53;12.38;;;9.70;;
49858;SDS011;35756;52.346;13.622;2022-08-19T02:28:18;11.75;;;10.35;;
49858;SDS011;35756;52.346;13.622;2022-08-19T02:30:44;14.32;;;9.48;;
49858;SDS011;35756;52.346;13.622;2022-08-19T02:33:09;10.50;;;9.38;;
49858;SDS011;35756;52.346;13.622;2022-08-19T02:35:34;10.88;;;9.77;;
49858;SDS011;35756;52.346;13.622;2022-08-19T02:38:00;9.95;;;8.95;;
49858;SDS011;35756;52.346;13.622;2022-08-19T02:40:51;10.55;;;9.07;;
49858;SDS011;35756;52.346;13.622;2022-08-19T02:43:17;11.63;;;8.90;;
49858;SDS011;35756;52.346;13.622;2022-08-19T02:45:45;11.55;;;9.30;;
49858;SDS011;35756;52.346;13.622;2022-08-19T02:48:11;11.02;;;8.70;;
49858;SDS011;35756;52.346;13.622;2022-08-19T02:50:39;9.82;;;8.55;;
49858;SDS011;35756;52.346;13.622;2022-08-19T02:53:05;9.50;;;8.52;;
49858;SDS011;35756;52.346;13.622;2022-08-19T02:55:32;10.57;;;8.70;;
49858;SDS011;35756;52.346;13.622;2022-08-19T02:57:58;11.05;;;8.75;;
49858;SDS011;35756;52.346;13.622;2022-08-19T03:00:24;10.80;;;8.20;;
49858;SDS011;35756;52.346;13.622;2022-08-19T03:02:50;9.55;;;8.55;;
49858;SDS011;35756;52.346;13.622;2022-08-19T03:05:16;10.07;;;8.55;;
49858;SDS011;35756;52.346;13.622;2022-08-19T03:07:41;9.23;;;7.85;;
49858;SDS011;35756;52.346;13.622;2022-08-19T03:10:06;9.48;;;8.52;;
49858;SDS011;35756;52.346;13.622;2022-08-19T03:12:34;8.88;;;7.80;;
49858;SDS011;35756;52.346;13.622;2022-08-19T03:15:01;10.68;;;8.90;;
49858;SDS011;35756;52.346;13.622;2022-08-19T03:17:26;10.70;;;8.82;;
49858;SDS011;35756;52.346;13.622;2022-08-19T03:19:52;10.00;;;8.90;;
49858;SDS011;35756;52.346;13.622;2022-08-19T03:22:17;10.40;;;9.07;;
49858;SDS011;35756;52.346;13.622;2022-08-19T03:24:42;11.98;;;10.80;;
49858;SDS011;35756;52.346;13.622;2022-08-19T03:27:08;11.15;;;9.40;;
49858;SDS011;35756;52.346;13.622;2022-08-19T03:29:34;11.57;;;10.38;;
49858;SDS011;35756;52.346;13.622;2022-08-19T03:32:04;10.75;;;9.65;;
49858;SDS011;35756;52.346;13.622;2022-08-19T03:34:30;12.95;;;9.10;;
49858;SDS011;35756;52.346;13.622;2022-08-19T03:36:58;11.25;;;9.63;;
49858;SDS011;35756;52.346;13.622;2022-08-19T03:39:25;12.85;;;10.15;;
49858;SDS011;35756;52.346;13.622;2022-08-19T03:41:51;12.60;;;10.52;;
49858;SDS011;35756;52.346;13.622;2022-08-19T03:44:19;11.75;;;10.55;;
49858;SDS011;35756;52.346;13.622;2022-08-19T03:46:47;11.50;;;10.32;;
49858;SDS011;35756;52.346;13.622;2022-08-19T03:49:17;11.07;;;9.98;;
49858;SDS011;35756;52.346;13.622;2022-08-19T03:51:43;11.75;;;10.52;;
49858;SDS011;35756;52.346;13.622;2022-08-19T03:54:09;12.15;;;10.65;;
49858;SDS011;35756;52.346;13.622;2022-08-19T03:56:37;12.52;;;11.23;;
49858;SDS011;35756;52.346;13.622;2022-08-19T03:59:04;11.85;;;10.63;;
49858;SDS011;35756;52.346;13.622;2022-08-19T04:01:30;12.55;;;11.35;;
49858;SDS011;35756;52.346;13.622;2022-08-19T04:03:56;12.20;;;10.82;;
49858;SDS011;35756;52.346;13.622;2022-08-19T04:06:23;12.50;;;11.18;;
49858;SDS011;35756;52.346;13.622;2022-08-19T04:08:51;11.88;;;10.77;;
49858;SDS011;35756;52.346;13.622;2022-08-19T04:11:20;13.35;;;11.23;;
49858;SDS011;35756;52.346;13.622;2022-08-19T04:13:48;12.18;;;10.98;;
49858;SDS011;35756;52.346;13.622;2022-08-19T04:16:16;12.32;;;10.95;;
49858;SDS011;35756;52.346;13.622;2022-08-19T04:18:42;12.00;;;10.75;;
49858;SDS011;35756;52.346;13.622;2022-08-19T04:21:07;13.25;;;11.13;;
49858;SDS011;35756;52.346;13.622;2022-08-19T04:23:33;12.30;;;11.00;;
49858;SDS011;35756;52.346;13.622;2022-08-19T04:26:02;12.75;;;11.45;;
49858;SDS011;35756;52.346;13.622;2022-08-19T04:28:28;14.45;;;11.52;;
49858;SDS011;35756;52.346;13.622;2022-08-19T04:30:54;12.32;;;11.02;;
49858;SDS011;35756;52.346;13.622;2022-08-19T04:33:21;12.77;;;11.50;;
49858;SDS011;35756;52.346;13.622;2022-08-19T04:35:50;12.02;;;10.82;;
49858;SDS011;35756;52.346;13.622;2022-08-19T04:38:19;11.60;;;10.40;;
49858;SDS011;35756;52.346;13.622;2022-08-19T04:40:48;12.60;;;10.82;;
49858;SDS011;35756;52.346;13.622;2022-08-19T04:43:33;11.63;;;10.43;;
49858;SDS011;35756;52.346;13.622;2022-08-19T04:46:08;12.25;;;10.75;;
49858;SDS011;35756;52.346;13.622;2022-08-19T04:48:35;12.75;;;11.20;;
49858;SDS011;35756;52.346;13.622;2022-08-19T04:51:01;12.07;;;10.20;;
49858;SDS011;35756;52.346;13.622;2022-08-19T04:53:32;13.48;;;10.88;;
49858;SDS011;35756;52.346;13.622;2022-08-19T04:55:59;12.48;;;10.27;;
49858;SDS011;35756;52.346;13.622;2022-08-19T04:58:26;12.70;;;11.07;;
49858;SDS011;35756;52.346;13.622;2022-08-19T05:00:52;12.35;;;10.52;;
49858;SDS011;35756;52.346;13.622;2022-08-19T05:03:18;12.07;;;10.80;;
49858;SDS011;35756;52.346;13.622;2022-08-19T05:05:44;13.60;;;11.02;;
49858;SDS011;35756;52.346;13.622;2022-08-19T05:08:13;11.75;;;10.55;;
49858;SDS011;35756;52.346;13.622;2022-08-19T05:10:43;11.15;;;9.98;;
49858;SDS011;35756;52.346;13.622;2022-08-19T05:13:09;11.45;;;10.25;;
49858;SDS011;35756;52.346;13.622;2022-08-19T05:15:35;11.15;;;10.05;;
49858;SDS011;35756;52.346;13.622;2022-08-19T05:18:01;11.20;;;10.18;;
49858;SDS011;35756;52.346;13.622;2022-08-19T05:20:45;11.77;;;10.57;;
49858;SDS011;35756;52.346;13.622;2022-08-19T05:26:14;12.65;;;11.27;;
49858;SDS011;35756;52.346;13.622;2022-08-19T05:28:39;11.77;;;10.23;;
49858;SDS011;35756;52.346;13.622;2022-08-19T05:31:04;12.43;;;11.13;;
49858;SDS011;35756;52.346;13.622;2022-08-19T05:33:30;12.75;;;11.00;;
49858;SDS011;35756;52.346;13.622;2022-08-19T05:35:55;13.07;;;11.10;;
49858;SDS011;35756;52.346;13.622;2022-08-19T05:38:20;12.20;;;10.88;;
49858;SDS011;35756;52.346;13.622;2022-08-19T05:40:46;12.43;;;10.93;;
49858;SDS011;35756;52.346;13.622;2022-08-19T05:43:13;13.25;;;11.63;;
49858;SDS011;35756;52.346;13.622;2022-08-19T05:45:42;14.60;;;12.18;;
49858;SDS011;35756;52.346;13.622;2022-08-19T05:48:09;14.60;;;11.77;;
49858;SDS011;35756;52.346;13.622;2022-08-19T05:50:36;12.93;;;11.45;;
49858;SDS011;35756;52.346;13.622;2022-08-19T05:53:02;12.85;;;11.40;;
49858;SDS011;35756;52.346;13.622;2022-08-19T05:55:27;13.23;;;11.95;;
49858;SDS011;35756;52.346;13.622;2022-08-19T05:57:52;13.93;;;12.40;;
49858;SDS011;35756;52.346;13.622;2022-08-19T06:00:18;13.80;;;12.32;;
49858;SDS011;35756;52.346;13.622;2022-08-19T06:02:43;15.20;;;12.50;;
49858;SDS011;35756;52.346;13.622;2022-08-19T06:05:09;12.82;;;11.55;;
49858;SDS011;35756;52.346;13.622;2022-08-19T06:07:38;13.73;;;12.30;;
49858;SDS011;35756;52.346;13.622;2022-08-19T06:10:05;14.52;;;12.60;;
49858;SDS011;35756;52.346;13.622;2022-08-19T06:12:32;14.77;;;13.27;;
49858;SDS011;35756;52.346;13.622;2022-08-19T06:14:59;13.57;;;12.18;;
49858;SDS011;35756;52.346;13.622;2022-08-19T06:17:25;13.57;;;12.18;;
49858;SDS011;35756;52.346;13.622;2022-08-19T06:19:51;14.57;;;13.07;;
49858;SDS011;35756;52.346;13.622;2022-08-19T06:22:16;14.48;;;13.07;;
49858;SDS011;35756;52.346;13.622;2022-08-19T06:24:41;14.20;;;12.80;;
49858;SDS011;35756;52.346;13.622;2022-08-19T06:27:07;14.75;;;13.18;;
49858;SDS011;35756;52.346;13.622;2022-08-19T06:29:32;14.73;;;13.23;;
49858;SDS011;35756;52.346;13.622;2022-08-19T06:31:59;15.95;;;14.25;;
49858;SDS011;35756;52.346;13.622;2022-08-19T06:34:25;14.95;;;13.18;;
49858;SDS011;35756;52.346;13.622;2022-08-19T06:36:52;16.98;;;14.93;;
49858;SDS011;35756;52.346;13.622;2022-08-19T06:39:25;16.50;;;14.80;;
49858;SDS011;35756;52.346;13.622;2022-08-19T06:41:52;18.15;;;14.95;;
49858;SDS011;35756;52.346;13.622;2022-08-19T06:44:20;16.90;;;14.80;;
49858;SDS011;35756;52.346;13.622;2022-08-19T06:46:46;17.92;;;16.13;;
49858;SDS011;35756;52.346;13.622;2022-08-19T06:49:12;16.20;;;14.60;;
49858;SDS011;35756;52.346;13.622;2022-08-19T06:51:39;16.50;;;14.90;;
49858;SDS011;35756;52.346;13.622;2022-08-19T06:54:06;17.55;;;15.73;;
49858;SDS011;35756;52.346;13.622;2022-08-19T06:56:32;17.90;;;16.08;;
49858;SDS011;35756;52.346;13.622;2022-08-19T06:59:02;16.98;;;15.18;;
49858;SDS011;35756;52.346;13.622;2022-08-19T07:01:40;18.27;;;15.93;;
49858;SDS011;35756;52.346;13.622;2022-08-19T07:04:07;16.38;;;14.77;;
49858;SDS011;35756;52.346;13.622;2022-08-19T07:06:34;16.63;;;14.82;;
49858;SDS011;35756;52.346;13.622;2022-08-19T07:09:00;18.40;;;15.35;;
49858;SDS011;35756;52.346;13.622;2022-08-19T07:11:25;18.98;;;16.30;;
49858;SDS011;35756;52.346;13.622;2022-08-19T07:13:51;18.05;;;16.00;;
49858;SDS011;35756;52.346;13.622;2022-08-19T07:16:17;18.63;;;16.65;;
49858;SDS011;35756;52.346;13.622;2022-08-19T07:18:47;19.10;;;17.13;;
49858;SDS011;35756;52.346;13.622;2022-08-19T07:21:14;18.70;;;16.65;;
49858;SDS011;35756;52.346;13.622;2022-08-19T07:23:44;19.92;;;17.15;;
49858;SDS011;35756;52.346;13.622;2022-08-19T07:26:11;17.52;;;15.82;;
49858;SDS011;35756;52.346;13.622;2022-08-19T07:28:39;18.48;;;16.52;;
49858;SDS011;35756;52.346;13.622;2022-08-19T07:31:09;18.10;;;16.20;;
49858;SDS011;35756;52.346;13.622;2022-08-19T07:33:36;18.40;;;16.60;;
49858;SDS011;35756;52.346;13.622;2022-08-19T07:36:06;20.70;;;18.55;;
49858;SDS011;35756;52.346;13.622;2022-08-19T07:38:32;19.92;;;17.92;;
49858;SDS011;35756;52.346;13.622;2022-08-19T07:40:59;20.02;;;17.90;;
49858;SDS011;35756;52.346;13.622;2022-08-19T07:43:24;19.73;;;17.52;;
49858;SDS011;35756;52.346;13.622;2022-08-19T07:45:52;18.73;;;16.65;;
49858;SDS011;35756;52.346;13.622;2022-08-19T07:48:20;20.10;;;18.10;;
49858;SDS011;35756;52.346;13.622;2022-08-19T07:50:50;18.73;;;16.85;;
49858;SDS011;35756;52.346;13.622;2022-08-19T07:53:21;18.05;;;16.13;;
49858;SDS011;35756;52.346;13.622;2022-08-19T07:55:46;19.58;;;16.17;;
49858;SDS011;35756;52.346;13.622;2022-08-19T07:58:12;18.73;;;16.88;;
49858;SDS011;35756;52.346;13.622;2022-08-19T08:00:38;20.20;;;18.33;;
49858;SDS011;35756;52.346;13.622;2022-08-19T08:03:04;18.55;;;16.60;;
49858;SDS011;35756;52.346;13.622;2022-08-19T08:05:30;17.92;;;16.13;;
49858;SDS011;35756;52.346;13.622;2022-08-19T08:08:14;21.85;;;18.05;;
49858;SDS011;35756;52.346;13.622;2022-08-19T08:10:59;20.00;;;17.83;;
49858;SDS011;35756;52.346;13.622;2022-08-19T08:13:25;18.58;;;16.77;;
49858;SDS011;35756;52.346;13.622;2022-08-19T08:15:50;19.88;;;17.88;;
49858;SDS011;35756;52.346;13.622;2022-08-19T08:18:15;19.33;;;17.35;;
49858;SDS011;35756;52.346;13.622;2022-08-19T08:20:40;19.15;;;17.20;;
49858;SDS011;35756;52.346;13.622;2022-08-19T08:23:06;19.67;;;17.73;;
49858;SDS011;35756;52.346;13.622;2022-08-19T08:25:50;18.88;;;17.02;;
49858;SDS011;35756;52.346;13.622;2022-08-19T08:28:17;20.33;;;18.00;;
49858;SDS011;35756;52.346;13.622;2022-08-19T08:30:43;20.55;;;18.35;;
49858;SDS011;35756;52.346;13.622;2022-08-19T08:33:10;19.92;;;17.88;;
49858;SDS011;35756;52.346;13.622;2022-08-19T08:35:35;20.70;;;18.52;;
49858;SDS011;35756;52.346;13.622;2022-08-19T08:38:01;21.42;;;19.23;;
49858;SDS011;35756;52.346;13.622;2022-08-19T08:40:30;21.45;;;19.15;;
49858;SDS011;35756;52.346;13.622;2022-08-19T08:43:18;20.73;;;18.55;;
49858;SDS011;35756;52.346;13.622;2022-08-19T08:51:36;19.00;;;17.20;;
49858;SDS011;35756;52.346;13.622;2022-08-19T08:54:23;21.30;;;19.10;;
49858;SDS011;35756;52.346;13.622;2022-08-19T08:56:49;20.15;;;17.95;;
49858;SDS011;35756;52.346;13.622;2022-08-19T08:59:21;20.70;;;18.70;;
49858;SDS011;35756;52.346;13.622;2022-08-19T09:01:49;20.55;;;18.45;;
49858;SDS011;35756;52.346;13.622;2022-08-19T09:04:14;20.23;;;18.20;;
49858;SDS011;35756;52.346;13.622;2022-08-19T09:06:47;22.90;;;19.92;;
49858;SDS011;35756;52.346;13.622;2022-08-19T09:09:18;22.90;;;20.70;;
49858;SDS011;35756;52.346;13.622;2022-08-19T09:15:02;21.23;;;19.23;;
49858;SDS011;35756;52.346;13.622;2022-08-19T09:17:30;21.52;;;19.42;;
49858;SDS011;35756;52.346;13.622;2022-08-19T09:20:02;21.33;;;19.20;;
49858;SDS011;35756;52.346;13.622;2022-08-19T09:22:38;20.02;;;18.02;;
49858;SDS011;35756;52.346;13.622;2022-08-19T09:25:06;19.00;;;17.00;;
49858;SDS011;35756;52.346;13.622;2022-08-19T09:27:33;18.60;;;16.77;;
49858;SDS011;35756;52.346;13.622;2022-08-19T09:30:00;19.55;;;17.10;;
49858;SDS011;35756;52.346;13.622;2022-08-19T09:32:25;19.65;;;17.75;;
49858;SDS011;35756;52.346;13.622;2022-08-19T09:34:52;20.90;;;17.83;;
49858;SDS011;35756;52.346;13.622;2022-08-19T09:37:23;20.00;;;18.00;;
49858;SDS011;35756;52.346;13.622;2022-08-19T09:39:49;19.55;;;17.50;;
49858;SDS011;35756;52.346;13.622;2022-08-19T09:42:14;19.13;;;17.23;;
49858;SDS011;35756;52.346;13.622;2022-08-19T09:44:40;19.48;;;17.58;;
49858;SDS011;35756;52.346;13.622;2022-08-19T09:47:06;20.02;;;18.13;;
49858;SDS011;35756;52.346;13.622;2022-08-19T09:49:32;18.40;;;16.65;;
49858;SDS011;35756;52.346;13.622;2022-08-19T09:51:58;18.08;;;16.35;;
49858;SDS011;35756;52.346;13.622;2022-08-19T09:54:23;17.27;;;15.57;;
49858;SDS011;35756;52.346;13.622;2022-08-19T09:56:49;20.08;;;18.08;;
49858;SDS011;35756;52.346;13.622;2022-08-19T09:59:14;20.15;;;18.05;;
49858;SDS011;35756;52.346;13.622;2022-08-19T10:01:39;18.92;;;17.13;;
49858;SDS011;35756;52.346;13.622;2022-08-19T10:04:05;19.67;;;17.77;;
49858;SDS011;35756;52.346;13.622;2022-08-19T10:06:37;19.55;;;17.50;;
49858;SDS011;35756;52.346;13.622;2022-08-19T10:09:05;20.73;;;18.15;;
49858;SDS011;35756;52.346;13.622;2022-08-19T10:11:33;20.60;;;18.50;;
49858;SDS011;35756;52.346;13.622;2022-08-19T10:13:59;20.65;;;18.63;;
49858;SDS011;35756;52.346;13.622;2022-08-19T10:16:25;25.25;;;19.35;;
49858;SDS011;35756;52.346;13.622;2022-08-19T10:18:50;21.70;;;19.45;;
49858;SDS011;35756;52.346;13.622;2022-08-19T10:21:17;21.73;;;19.63;;
49858;SDS011;35756;52.346;13.622;2022-08-19T10:23:48;20.92;;;18.92;;
49858;SDS011;35756;52.346;13.622;2022-08-19T10:26:15;22.08;;;19.60;;
49858;SDS011;35756;52.346;13.622;2022-08-19T10:28:42;21.67;;;19.58;;
49858;SDS011;35756;52.346;13.622;2022-08-19T10:31:21;20.77;;;18.70;;
49858;SDS011;35756;52.346;13.622;2022-08-19T10:33:48;21.65;;;19.65;;
49858;SDS011;35756;52.346;13.622;2022-08-19T10:36:15;24.27;;;21.77;;
49858;SDS011;35756;52.346;13.622;2022-08-19T10:38:43;23.90;;;21.50;;
49858;SDS011;35756;52.346;13.622;2022-08-19T10:41:11;23.73;;;21.42;;
49858;SDS011;35756;52.346;13.622;2022-08-19T10:43:38;26.23;;;23.65;;
49858;SDS011;35756;52.346;13.622;2022-08-19T10:46:09;24.88;;;22.33;;
49858;SDS011;35756;52.346;13.622;2022-08-19T10:48:35;24.52;;;22.25;;
49858;SDS011;35756;52.346;13.622;2022-08-19T10:51:00;23.90;;;21.45;;
49858;SDS011;35756;52.346;13.622;2022-08-19T10:53:44;24.77;;;22.27;;
49858;SDS011;35756;52.346;13.622;2022-08-19T10:56:10;25.67;;;23.15;;
49858;SDS011;35756;52.346;13.622;2022-08-19T10:58:54;24.50;;;22.13;;
49858;SDS011;35756;52.346;13.622;2022-08-19T11:01:21;23.63;;;21.33;;
49858;SDS011;35756;52.346;13.622;2022-08-19T11:03:46;24.65;;;21.42;;
49858;SDS011;35756;52.346;13.622;2022-08-19T11:06:12;24.67;;;22.17;;
49858;SDS011;35756;52.346;13.622;2022-08-19T11:08:37;23.90;;;21.35;;
49858;SDS011;35756;52.346;13.622;2022-08-19T11:11:03;22.48;;;20.27;;
49858;SDS011;35756;52.346;13.622;2022-08-19T11:13:29;24.02;;;21.73;;
49858;SDS011;35756;52.346;13.622;2022-08-19T11:16:00;23.25;;;20.95;;
49858;SDS011;35756;52.346;13.622;2022-08-19T11:18:26;23.25;;;20.90;;
49858;SDS011;35756;52.346;13.622;2022-08-19T11:20:52;22.05;;;19.95;;
49858;SDS011;35756;52.346;13.622;2022-08-19T11:23:17;21.25;;;19.05;;
49858;SDS011;35756;52.346;13.622;2022-08-19T11:25:43;22.98;;;20.77;;
49858;SDS011;35756;52.346;13.622;2022-08-19T11:28:10;22.58;;;20.38;;
49858;SDS011;35756;52.346;13.622;2022-08-19T11:30:36;22.17;;;19.88;;
49858;SDS011;35756;52.346;13.622;2022-08-19T11:33:03;22.00;;;19.48;;
49858;SDS011;35756;52.346;13.622;2022-08-19T11:35:28;21.10;;;19.10;;
49858;SDS011;35756;52.346;13.622;2022-08-19T11:37:53;21.98;;;19.70;;
49858;SDS011;35756;52.346;13.622;2022-08-19T11:40:20;21.67;;;19.48;;
49858;SDS011;35756;52.346;13.622;2022-08-19T11:42:45;22.77;;;20.25;;
49858;SDS011;35756;52.346;13.622;2022-08-19T11:45:21;22.02;;;19.70;;
49858;SDS011;35756;52.346;13.622;2022-08-19T11:47:47;22.90;;;20.40;;
49858;SDS011;35756;52.346;13.622;2022-08-19T11:50:12;22.00;;;19.67;;
49858;SDS011;35756;52.346;13.622;2022-08-19T11:52:38;20.52;;;18.40;;
49858;SDS011;35756;52.346;13.622;2022-08-19T11:55:03;20.38;;;18.42;;
49858;SDS011;35756;52.346;13.622;2022-08-19T11:57:30;21.77;;;19.67;;
49858;SDS011;35756;52.346;13.622;2022-08-19T11:59:55;19.92;;;17.83;;
49858;SDS011;35756;52.346;13.622;2022-08-19T12:02:20;20.40;;;18.30;;
49858;SDS011;35756;52.346;13.622;2022-08-19T12:04:46;19.95;;;17.95;;
49858;SDS011;35756;52.346;13.622;2022-08-19T12:07:12;19.55;;;17.65;;
49858;SDS011;35756;52.346;13.622;2022-08-19T12:09:37;18.88;;;17.08;;
49858;SDS011;35756;52.346;13.622;2022-08-19T12:12:04;19.05;;;17.17;;
49858;SDS011;35756;52.346;13.622;2022-08-19T12:14:29;19.73;;;17.73;;
49858;SDS011;35756;52.346;13.622;2022-08-19T12:16:55;20.13;;;18.13;;
49858;SDS011;35756;52.346;13.622;2022-08-19T12:19:21;18.65;;;16.77;;
49858;SDS011;35756;52.346;13.622;2022-08-19T12:21:46;18.40;;;16.52;;
49858;SDS011;35756;52.346;13.622;2022-08-19T12:24:11;19.27;;;17.38;;
49858;SDS011;35756;52.346;13.622;2022-08-19T12:26:37;19.80;;;17.75;;
49858;SDS011;35756;52.346;13.622;2022-08-19T12:29:02;18.77;;;16.67;;
49858;SDS011;35756;52.346;13.622;2022-08-19T12:31:29;17.67;;;15.88;;
49858;SDS011;35756;52.346;13.622;2022-08-19T12:33:55;19.20;;;17.15;;
49858;SDS011;35756;52.346;13.622;2022-08-19T12:36:20;18.75;;;16.80;;
49858;SDS011;35756;52.346;13.622;2022-08-19T12:38:46;17.95;;;16.15;;
49858;SDS011;35756;52.346;13.622;2022-08-19T12:41:13;18.15;;;16.38;;
49858;SDS011;35756;52.346;13.622;2022-08-19T12:43:40;17.85;;;16.08;;
49858;SDS011;35756;52.346;13.622;2022-08-19T12:46:06;19.17;;;16.70;;
49858;SDS011;35756;52.346;13.622;2022-08-19T12:48:32;17.85;;;16.15;;
49858;SDS011;35756;52.346;13.622;2022-08-19T12:50:58;18.23;;;16.48;;
49858;SDS011;35756;52.346;13.622;2022-08-19T12:53:24;17.38;;;15.70;;
49858;SDS011;35756;52.346;13.622;2022-08-19T12:55:56;18.65;;;16.70;;
49858;SDS011;35756;52.346;13.622;2022-08-19T12:58:22;18.10;;;16.40;;
49858;SDS011;35756;52.346;13.622;2022-08-19T13:00:48;18.30;;;16.42;;
49858;SDS011;35756;52.346;13.622;2022-08-19T13:03:14;17.67;;;16.02;;
49858;SDS011;35756;52.346;13.622;2022-08-19T13:05:40;16.92;;;15.32;;
49858;SDS011;35756;52.346;13.622;2022-08-19T13:08:05;17.55;;;15.73;;
49858;SDS011;35756;52.346;13.622;2022-08-19T13:10:32;17.35;;;15.55;;
49858;SDS011;35756;52.346;13.622;2022-08-19T13:13:02;17.55;;;15.80;;
49858;SDS011;35756;52.346;13.622;2022-08-19T13:15:32;17.55;;;15.73;;
49858;SDS011;35756;52.346;13.622;2022-08-19T13:17:58;16.95;;;15.35;;
49858;SDS011;35756;52.346;13.622;2022-08-19T13:20:24;16.77;;;15.07;;
49858;SDS011;35756;52.346;13.622;2022-08-19T13:22:50;17.25;;;15.63;;
49858;SDS011;35756;52.346;13.622;2022-08-19T13:25:16;16.58;;;15.02;;
49858;SDS011;35756;52.346;13.622;2022-08-19T13:27:44;16.65;;;14.95;;
49858;SDS011;35756;52.346;13.622;2022-08-19T13:30:10;15.63;;;13.95;;
49858;SDS011;35756;52.346;13.622;2022-08-19T13:32:56;16.90;;;14.95;;
49858;SDS011;35756;52.346;13.622;2022-08-19T13:35:39;16.60;;;14.83;;
49858;SDS011;35756;52.346;13.622;2022-08-19T13:38:20;16.55;;;13.80;;
49858;SDS011;35756;52.346;13.622;2022-08-19T13:40:46;14.68;;;13.13;;
49858;SDS011;35756;52.346;13.622;2022-08-19T13:43:13;15.90;;;13.70;;
49858;SDS011;35756;52.346;13.622;2022-08-19T13:45:39;15.07;;;13.57;;
49858;SDS011;35756;52.346;13.622;2022-08-19T13:48:05;15.85;;;13.95;;
49858;SDS011;35756;52.346;13.622;2022-08-19T13:50:32;14.65;;;13.15;;
49858;SDS011;35756;52.346;13.622;2022-08-19T13:52:57;14.38;;;12.90;;
49858;SDS011;35756;52.346;13.622;2022-08-19T13:55:23;13.77;;;12.48;;
49858;SDS011;35756;52.346;13.622;2022-08-19T13:57:53;13.27;;;11.98;;
49858;SDS011;35756;52.346;13.622;2022-08-19T14:00:20;14.43;;;13.02;;
49858;SDS011;35756;52.346;13.622;2022-08-19T14:02:46;14.55;;;12.85;;
49858;SDS011;35756;52.346;13.622;2022-08-19T14:05:13;13.43;;;12.13;;
49858;SDS011;35756;52.346;13.622;2022-08-19T14:07:39;13.32;;;11.93;;
49858;SDS011;35756;52.346;13.622;2022-08-19T14:10:06;12.50;;;11.25;;
49858;SDS011;35756;52.346;13.622;2022-08-19T14:12:33;13.45;;;12.13;;
49858;SDS011;35756;52.346;13.622;2022-08-19T14:14:59;13.85;;;12.05;;
49858;SDS011;35756;52.346;13.622;2022-08-19T14:17:25;12.60;;;11.43;;
49858;SDS011;35756;52.346;13.622;2022-08-19T14:19:59;15.25;;;12.63;;
49858;SDS011;35756;52.346;13.622;2022-08-19T14:22:34;12.68;;;11.48;;
49858;SDS011;35756;52.346;13.622;2022-08-19T14:25:00;13.65;;;11.77;;